Echo, UT (84024)

11:14 PM MDT on August 28, 2014 (GMT -0600)
Hoytsville | Change Station
CLOSE
Current Station
Personal Weather Station
Location: Coalville, UT
Elevation: 5692 ft
Nearby Weather Stations

Elev 5692 ft 40.89 °N, 111.39 °W | Updated 9 minutes ago

Clear
Clear
55.4 °F
Feels Like 55.4 °F
N
0.0
Wind Variable Wind from SE
Gusts 2.0 mph

Today
High -- | Low -- °F
--% Chance of Precip.
Yesterday
High -- | Low -- °F
Precip. -- in
6:48 AM 8:04 PM
Waxing Crescent, 12% visible
Pressure 30.08 in
Visibility 10.0 miles
Clouds Clear
Dew Point 45 °F
Humidity 69%
Rainfall 0.00 in
Snow Depth 0 in , 0 in
UV 0 out of 12
Pollen 8.30 out of 12
Air Quality Not available.
Flu Activity Not available.
METAR KEVW 290453Z AUTO 24008KT 10SM CLR 12/06 A3030 RMK AO2 SLP184 T01220061

More Conditions Fewer Conditions

Pressure 30.08 in
Visibility 10.0 miles
Clouds Clear
Dew Point 45 °F
Humidity 69%
Rainfall 0.00 in
Snow Depth 0 in , 0 in
UV 0 out of 12
Pollen 8.30 out of 12
Air Quality Not available.
Flu Activity Not available.
METAR KEVW 290453Z AUTO 24008KT 10SM CLR 12/06 A3030 RMK AO2 SLP184 T01220061

More Conditions Fewer Conditions

10-Day Weather Forecast

Almanac

Astronomy

Aug. 28, 2014 Rise Set
Actual Time 6:48 AM MDT 8:04 PM MDT
Civil Twilight 6:20 AM MDT 8:32 PM MDT
Nautical Twilight 5:45 AM MDT 9:06 PM MDT
Astronomical Twilight 5:09 AM MDT 9:42 PM MDT
Moon 9:46 AM MDT (8/28) 9:28 PM MDT (8/28)
Length of Visible Light 14h 12m
Length of Day
13h 15m
Tomorrow will be 2m 34s shorter.
Waxing Crescent, 12% of the Moon is Illuminated
Aug 29
Waxing Crescent
Sep 2
First Quarter
Sep 8
Full
Sep 15
Last Quarter
Sep 24
New

Yesterday's Extremes

State Highs State Lows

Community

WunderPhotos

Upload Photos

1,748,192 photos uploaded!

Nearby

Snow Depth

Station Depth Elevation
Hardscrabble 0 in 7250 ft
Chalk Creek #1 0 in 9100 ft
Louis Meadow 0 in 6700 ft
Horse Ridge 0 in 8160 ft
Trial Lake 1 in 9960 ft

Earthquake Activity

City Distance Mag. Time & Date
No recent earthquake activity has been reported nearby.
Minimum magnitude displayed is 2.5.

Coastal Water Temperatures

Place Temperature
No Stations Reporting

Nearby Weather Stations